MDT,Max TemperatureF,Mean TemperatureF,Min TemperatureF,Max Dew PointF,MeanDew PointF,Min DewpointF,Max Humidity, Mean Humidity, Min Humidity, Max Sea Level PressureIn, Mean Sea Level PressureIn, Min Sea Level PressureIn, Max VisibilityMiles, Mean VisibilityMiles, Min VisibilityMiles, Max Wind SpeedMPH, Mean Wind SpeedMPH, Max Gust SpeedMPH,PrecipitationIn, CloudCover, Events, WindDirDegrees
2013-6-1,62,42,23,57,40,19,88,85,80,30.34,30.26,30.15,10,10,5,15,3,20,0.00,0,,215
2013-6-2,68,47,26,64,46,23,100,86,80,30.14,29.95,29.74,10,10,10,23,5,39,0.00,3,,243
2013-6-3,55,44,32,50,40,28,93,84,81,30.10,30.01,29.90,10,10,8,17,7,28,0.01,5,Rain,265
2013-6-4,53,42,32,50,41,27,93,85,80,30.26,30.18,30.10,10,10,10,16,4,22,0.00,5,,20
2013-6-5,66,44,23,63,45,23,100,90,81,30.28,30.21,30.13,10,10,10,15,3,23,0.00,1,,224
2013-6-6,69,50,30,66,51,27,100,90,80,30.22,30.18,30.15,10,10,10,15,3,20,0.00,1,,226
2013-6-7,75,54,32,70,53,32,100,90,82,30.18,30.07,29.94,10,10,10,15,3,26,0.00,2,Rain,255
2013-6-8,73,56,39,68,55,36,88,85,81,30.12,30.08,29.99,10,10,10,18,5,24,0.00,0,,266
2013-6-9,77,54,32,72,55,27,100,86,80,30.14,30.06,29.95,10,10,10,25,7,34,0.00,0,,219
2013-6-10,78,60,41,75,58,37,89,85,81,30.00,29.95,29.87,10,10,10,25,7,37,0.00,1,,226
2013-6-11,69,54,39,66,54,39,100,88,82,30.10,29.99,29.92,10,10,10,22,6,31,0.00,2,Rain,224
2013-6-12,64,52,39,59,47,36,100,86,81,30.21,30.16,30.11,10,10,2,21,5,32,0.18,3,Rain,178
2013-6-13,68,54,39,64,49,36,88,84,81,30.20,30.06,29.97,10,10,3,29,7,54,0.05,3,Rain,227
2013-6-14,48,40,32,45,35,27,87,84,80,30.26,30.18,30.07,10,10,3,21,7,30,0.04,5,Rain,215
2013-6-15,68,49,30,63,42,27,88,85,80,30.26,30.19,30.12,10,7,0,15,3,22,0.00,3,Fog,196
2013-6-16,73,50,26,68,48,25,100,87,80,30.23,30.19,30.14,10,10,10,14,2,30,0.00,1,,317
2013-6-17,75,54,32,72,52,28,89,84,81,30.25,30.19,30.11,10,10,10,17,3,26,0.00,1,,207
2013-6-18,80,56,32,75,54,27,89,85,80,30.12,30.02,29.88,10,10,10,21,2,39,0.00,0,,187
2013-6-19,68,54,41,64,47,36,88,84,81,30.00,29.86,29.77,10,10,5,28,8,48,0.02,1,Rain,221
2013-6-20,55,44,32,50,39,27,88,84,80,30.11,30.07,30.00,10,10,10,18,10,32,0.00,5,,216
2013-6-21,59,42,24,55,39,21,93,85,80,30.12,30.09,30.07,10,10,10,20,3,29,0.00,3,,219
2013-6-22,53,40,26,50,37,23,100,85,80,30.15,30.11,30.08,10,10,2,16,3,28,0.03,4,Rain,217
2013-6-23,66,47,28,63,45,25,100,86,80,30.13,30.01,29.90,10,8,0,21,4,32,0.00,3,Fog,209
2013-6-24,71,52,32,66,49,32,100,87,81,29.97,29.88,29.82,10,9,3,28,5,36,0.13,2,Rain,211
2013-6-25,62,54,46,57,48,41,88,84,81,30.12,30.05,29.97,10,10,5,18,11,30,0.02,7,Rain,215
2013-6-26,69,60,50,64,54,46,88,85,82,30.29,30.20,30.11,10,10,5,23,8,36,0.01,6,Rain,203
2013-6-27,80,58,37,75,57,32,89,84,81,30.41,30.37,30.30,10,10,10,20,4,30,0.00,0,,221
2013-6-28,84,62,39,81,60,36,93,85,81,30.47,30.41,30.35,10,10,10,12,2,,0.00,0,,286
2013-6-29,84,63,42,79,57,41,100,87,81,30.42,30.36,30.26,10,10,5,16,3,22,0.06,1,Rain,2
2013-6-30,84,63,42,79,61,43,100,87,82,30.42,30.32,30.27,10,9,0,10,2,20,0.00,2,Fog-Rain,354